createdAt,value
2019-05-19T00:02:18.281Z,65.54
2019-05-19T00:04:45.368Z,65.62
2019-05-19T00:07:12.135Z,65.67
2019-05-19T00:09:38.876Z,65.66
2019-05-19T00:12:05.790Z,65.60
2019-05-19T00:14:32.537Z,65.60
2019-05-19T00:16:59.274Z,65.57
2019-05-19T00:19:27.165Z,65.58
2019-05-19T00:21:54.170Z,65.72
2019-05-19T00:24:20.941Z,65.80
2019-05-19T00:26:47.723Z,65.96
2019-05-19T00:29:14.469Z,66.03
2019-05-19T00:31:41.216Z,66.18
2019-05-19T00:34:08.009Z,66.29
2019-05-19T00:36:34.763Z,66.22
2019-05-19T00:39:01.516Z,66.22
2019-05-19T00:41:28.286Z,66.27
2019-05-19T00:43:55.031Z,66.34
2019-05-19T00:46:22.884Z,66.25
2019-05-19T00:48:49.783Z,66.10
2019-05-19T00:51:16.733Z,66.12
2019-05-19T00:53:43.461Z,66.33
2019-05-19T00:56:10.775Z,66.42
2019-05-19T00:58:38.413Z,66.44
2019-05-19T01:01:05.156Z,66.46
2019-05-19T01:03:31.924Z,66.61
2019-05-19T01:05:58.686Z,66.61
2019-05-19T01:08:25.407Z,66.75
2019-05-19T01:10:52.183Z,66.85
2019-05-19T01:13:18.966Z,66.82
2019-05-19T01:15:45.726Z,66.83
2019-05-19T01:18:12.545Z,66.88
2019-05-19T01:20:39.304Z,66.93
2019-05-19T01:23:06.114Z,66.98
2019-05-19T01:25:32.987Z,67.03
2019-05-19T01:27:59.712Z,67.01
2019-05-19T01:30:26.660Z,66.95
2019-05-19T01:32:53.456Z,66.78
2019-05-19T01:35:20.199Z,66.61
2019-05-19T01:37:46.959Z,66.59
2019-05-19T01:40:14.838Z,66.73
2019-05-19T01:42:41.580Z,66.65
2019-05-19T01:45:08.934Z,66.59
2019-05-19T01:47:35.760Z,66.56
2019-05-19T01:50:17.758Z,66.64
2019-05-19T01:52:36.816Z,66.64
2019-05-19T01:55:05.411Z,66.74
2019-05-19T01:57:32.126Z,66.87
2019-05-19T01:59:58.901Z,67.01
2019-05-19T02:02:25.741Z,66.90
2019-05-19T02:04:52.491Z,66.83
2019-05-19T02:07:19.246Z,66.92
2019-05-19T02:09:46.030Z,67.01
2019-05-19T02:12:12.774Z,66.98
2019-05-19T02:14:39.540Z,67.02
2019-05-19T02:17:06.323Z,67.01
2019-05-19T02:19:33.555Z,67.02
2019-05-19T02:22:00.292Z,66.98
2019-05-19T02:24:27.194Z,67.14
2019-05-19T02:26:53.964Z,67.14
2019-05-19T02:29:20.671Z,67.16
2019-05-19T02:31:47.524Z,67.04
2019-05-19T02:34:14.226Z,67.02
2019-05-19T02:36:40.968Z,67.00
2019-05-19T02:39:07.761Z,66.96
2019-05-19T02:41:37.805Z,67.07
2019-05-19T02:44:05.344Z,67.17
2019-05-19T02:46:34.261Z,67.15
2019-05-19T02:49:02.886Z,67.13
2019-05-19T02:51:32.147Z,67.10
2019-05-19T02:54:01.817Z,67.19
2019-05-19T02:56:30.880Z,67.31
2019-05-19T02:58:58.719Z,67.27
2019-05-19T03:01:25.496Z,67.10
2019-05-19T03:03:52.244Z,67.15
2019-05-19T03:06:18.981Z,67.21
2019-05-19T03:08:45.769Z,67.37
2019-05-19T03:11:12.552Z,67.41
2019-05-19T03:13:39.259Z,67.42
2019-05-19T03:16:06.066Z,67.32
2019-05-19T03:18:32.812Z,67.28
2019-05-19T03:21:10.362Z,67.21
2019-05-19T03:23:28.170Z,67.12
2019-05-19T03:25:54.962Z,66.91
2019-05-19T03:28:21.696Z,66.95
2019-05-19T03:30:48.498Z,67.06
2019-05-19T03:33:15.270Z,66.99
2019-05-19T03:35:42.026Z,66.84
2019-05-19T03:38:08.920Z,66.74
2019-05-19T03:40:35.685Z,66.84
2019-05-19T03:43:02.447Z,66.82
2019-05-19T03:45:29.261Z,66.76
2019-05-19T03:47:56.012Z,66.52
2019-05-19T03:50:22.771Z,66.51
2019-05-19T03:52:49.562Z,66.50
2019-05-19T03:55:16.309Z,66.54
2019-05-19T03:57:43.048Z,66.73
2019-05-19T04:00:10.438Z,66.75
2019-05-19T04:02:37.181Z,66.73
2019-05-19T04:05:09.083Z,66.50
2019-05-19T04:07:35.856Z,66.32
2019-05-19T04:10:05.306Z,66.26
2019-05-19T04:12:32.051Z,66.28
2019-05-19T04:14:58.830Z,66.31
2019-05-19T04:17:25.602Z,66.38
2019-05-19T04:19:52.317Z,66.52
2019-05-19T04:22:19.206Z,66.52
2019-05-19T04:24:45.940Z,66.48
2019-05-19T04:27:12.718Z,66.51
2019-05-19T04:29:39.745Z,66.41
2019-05-19T04:32:06.482Z,66.53
2019-05-19T04:34:33.250Z,66.56
2019-05-19T04:37:00.017Z,66.59
2019-05-19T04:39:26.731Z,66.80
2019-05-19T04:41:53.466Z,66.90
2019-05-19T04:44:20.368Z,66.74
2019-05-19T04:46:47.108Z,66.73
2019-05-19T04:49:13.856Z,66.78
2019-05-19T04:51:40.633Z,66.56
2019-05-19T04:54:07.366Z,66.63
2019-05-19T04:56:34.105Z,66.59
2019-05-19T04:59:00.913Z,66.61
2019-05-19T05:01:27.645Z,66.48
2019-05-19T05:03:54.352Z,66.61
2019-05-19T05:06:21.150Z,66.77
2019-05-19T05:08:47.860Z,66.71
2019-05-19T05:11:14.610Z,66.82
2019-05-19T05:13:43.264Z,66.98
2019-05-19T05:16:10.040Z,67.07
2019-05-19T05:18:36.764Z,66.66
2019-05-19T05:21:03.658Z,66.42
2019-05-19T05:23:30.420Z,66.28
2019-05-19T05:25:57.185Z,65.74
2019-05-19T05:28:24.316Z,65.66
2019-05-19T05:30:51.028Z,66.07
2019-05-19T05:33:17.836Z,66.31
2019-05-19T05:35:44.628Z,65.93
2019-05-19T05:38:11.352Z,66.00
2019-05-19T05:40:39.525Z,66.47
2019-05-19T05:43:08.446Z,66.88
2019-05-19T05:45:35.484Z,66.71
2019-05-19T05:48:02.358Z,66.89
2019-05-19T05:50:29.246Z,66.86
2019-05-19T05:52:55.976Z,66.96
2019-05-19T05:55:22.741Z,66.44
2019-05-19T05:57:49.528Z,65.90
2019-05-19T06:00:16.864Z,66.00
2019-05-19T06:02:43.579Z,65.95
2019-05-19T06:05:10.485Z,65.72
2019-05-19T06:07:37.217Z,65.46
2019-05-19T06:10:06.373Z,65.55
2019-05-19T06:12:33.251Z,65.31
2019-05-19T06:15:00.060Z,65.54
2019-05-19T06:17:26.766Z,65.63
2019-05-19T06:19:53.668Z,66.28
2019-05-19T06:22:20.400Z,66.41
2019-05-19T06:24:47.177Z,66.63
2019-05-19T06:27:13.982Z,66.71
2019-05-19T06:29:40.764Z,66.71
2019-05-19T06:32:07.532Z,66.25
2019-05-19T06:34:34.427Z,66.60
2019-05-19T06:37:01.151Z,66.45
2019-05-19T06:39:27.868Z,66.66
2019-05-19T06:41:54.666Z,66.62
2019-05-19T06:46:56.715Z,66.23
2019-05-19T06:49:23.545Z,66.30
2019-05-19T06:51:50.316Z,66.30
2019-05-19T06:54:17.069Z,66.13
2019-05-19T06:56:43.901Z,65.79
2019-05-19T06:59:10.658Z,65.77
2019-05-19T07:01:37.400Z,66.07
2019-05-19T07:04:04.223Z,66.08
2019-05-19T07:06:34.015Z,66.35
2019-05-19T07:08:59.559Z,66.24
2019-05-19T07:11:26.370Z,65.62
2019-05-19T07:13:53.100Z,65.32
2019-05-19T07:16:19.851Z,65.24
2019-05-19T07:18:46.650Z,65.51
2019-05-19T07:21:13.388Z,65.71
2019-05-19T07:23:40.121Z,65.55
2019-05-19T07:26:06.919Z,65.52
2019-05-19T07:28:33.667Z,65.55
2019-05-19T07:31:00.454Z,65.16
2019-05-19T07:33:27.284Z,64.97
2019-05-19T07:35:54.174Z,64.73
2019-05-19T07:38:20.929Z,64.77
2019-05-19T07:40:47.852Z,64.52
2019-05-19T07:43:14.667Z,64.32
2019-05-19T07:45:41.474Z,64.60
2019-05-19T07:48:08.282Z,64.79
2019-05-19T07:50:37.966Z,64.44
2019-05-19T07:53:03.568Z,64.04
2019-05-19T07:55:30.476Z,64.28
2019-05-19T07:57:57.231Z,64.50
2019-05-19T08:00:23.983Z,64.62
2019-05-19T08:02:50.856Z,64.70
2019-05-19T08:05:17.588Z,64.66
2019-05-19T08:07:44.354Z,64.40
2019-05-19T08:10:11.751Z,64.59
2019-05-19T08:12:38.507Z,64.81
2019-05-19T08:15:06.654Z,64.92
2019-05-19T08:17:33.572Z,64.84
2019-05-19T08:20:00.300Z,64.87
2019-05-19T08:22:27.065Z,64.90
2019-05-19T08:24:53.961Z,65.28
2019-05-19T08:27:20.717Z,65.55
2019-05-19T08:29:47.554Z,65.67
2019-05-19T08:32:14.343Z,65.45
2019-05-19T08:34:41.105Z,65.36
2019-05-19T08:37:07.837Z,65.23
2019-05-19T08:39:34.657Z,65.21
2019-05-19T08:42:01.395Z,65.05
2019-05-19T08:44:28.156Z,65.56
2019-05-19T08:46:55.224Z,65.36
2019-05-19T08:49:22.205Z,65.34
2019-05-19T08:51:49.008Z,65.19
2019-05-19T08:54:18.843Z,65.38
2019-05-19T08:56:44.437Z,65.48
2019-05-19T08:59:11.187Z,65.55
2019-05-19T09:01:37.978Z,64.96
2019-05-19T09:04:04.724Z,63.97
2019-05-19T09:06:31.488Z,63.91
2019-05-19T09:08:58.280Z,63.34
2019-05-19T09:11:25.028Z,62.72
2019-05-19T09:13:51.813Z,63.13
2019-05-19T09:16:27.889Z,61.81
2019-05-19T09:18:54.583Z,61.21
2019-05-19T09:21:21.395Z,61.72
2019-05-19T09:23:48.177Z,61.58
2019-05-19T09:26:14.924Z,60.18
2019-05-19T09:28:41.693Z,58.78
2019-05-19T09:31:08.633Z,58.67
2019-05-19T09:33:35.394Z,59.33
2019-05-19T09:36:02.131Z,59.39
2019-05-19T09:38:28.944Z,59.60
2019-05-19T09:40:55.725Z,59.84
2019-05-19T09:43:22.477Z,60.51
2019-05-19T09:45:49.331Z,60.74
2019-05-19T09:48:16.113Z,60.46
2019-05-19T09:50:42.888Z,58.87
2019-05-19T09:53:09.691Z,58.90
2019-05-19T09:55:36.442Z,58.58
2019-05-19T09:58:03.284Z,59.09
2019-05-19T10:00:30.194Z,59.08
2019-05-19T10:02:56.943Z,58.64
2019-05-19T10:05:23.705Z,58.66
2019-05-19T10:07:50.532Z,58.50
2019-05-19T10:10:21.140Z,58.29
2019-05-19T10:12:47.869Z,58.15
2019-05-19T10:15:14.893Z,57.55
2019-05-19T10:17:44.150Z,58.23
2019-05-19T10:20:12.827Z,57.24
2019-05-19T10:22:39.633Z,57.60
2019-05-19T10:25:20.940Z,57.79
2019-05-19T10:27:37.329Z,58.17
2019-05-19T10:30:07.645Z,57.83
2019-05-19T10:32:34.456Z,57.41
2019-05-19T10:35:03.075Z,56.73
2019-05-19T10:37:31.361Z,56.79
2019-05-19T10:39:58.131Z,56.83
2019-05-19T10:42:25.258Z,56.71
2019-05-19T10:44:52.707Z,55.11
2019-05-19T10:47:19.602Z,55.61
2019-05-19T10:49:46.842Z,56.50
2019-05-19T10:52:13.786Z,55.50
2019-05-19T10:54:40.516Z,55.49
2019-05-19T10:57:07.272Z,55.23
2019-05-19T10:59:34.084Z,54.76
2019-05-19T11:02:00.816Z,54.69
2019-05-19T11:04:27.558Z,54.17
2019-05-19T11:06:54.352Z,53.15
2019-05-19T11:09:21.143Z,52.82
2019-05-19T11:11:47.820Z,51.58
2019-05-19T11:14:14.732Z,51.34
2019-05-19T11:16:41.493Z,51.71
2019-05-19T11:19:08.210Z,52.38
2019-05-19T11:21:35.016Z,52.43
2019-05-19T11:24:01.795Z,52.38
2019-05-19T11:26:28.534Z,52.75
2019-05-19T11:28:56.014Z,52.06
2019-05-19T11:31:22.845Z,52.26
2019-05-19T11:33:49.614Z,53.39
2019-05-19T11:36:17.000Z,52.64
2019-05-19T11:38:43.771Z,51.97
2019-05-19T11:41:10.517Z,51.66
2019-05-19T11:43:37.339Z,52.07
2019-05-19T11:46:04.115Z,51.74
2019-05-19T11:48:30.835Z,52.29
2019-05-19T11:50:57.892Z,52.28
2019-05-19T11:53:24.687Z,52.37
2019-05-19T11:56:05.460Z,52.02
2019-05-19T11:58:20.245Z,51.85
2019-05-19T12:00:47.005Z,51.16
2019-05-19T12:03:13.774Z,50.94
2019-05-19T12:05:40.574Z,50.80
2019-05-19T12:08:07.310Z,49.88
2019-05-19T12:10:34.056Z,50.06
2019-05-19T12:13:00.853Z,50.17
2019-05-19T12:15:27.592Z,50.51
2019-05-19T12:17:54.336Z,50.73
2019-05-19T12:20:21.186Z,51.90
2019-05-19T12:22:47.892Z,52.63
2019-05-19T12:25:14.825Z,52.96
2019-05-19T12:27:41.727Z,52.91
2019-05-19T12:30:12.372Z,52.69
2019-05-19T12:32:39.166Z,52.30
2019-05-19T12:35:06.053Z,51.23
2019-05-19T12:37:32.828Z,51.68
2019-05-19T12:39:59.538Z,51.59
2019-05-19T12:42:26.380Z,52.38
2019-05-19T12:44:53.155Z,52.69
2019-05-19T12:47:19.922Z,52.47
2019-05-19T12:49:46.732Z,51.55
2019-05-19T12:52:13.452Z,51.41
2019-05-19T12:54:40.237Z,51.88
2019-05-19T12:57:07.006Z,52.26
2019-05-19T12:59:33.734Z,51.97
2019-05-19T13:02:00.469Z,52.73
2019-05-19T13:04:27.284Z,53.04
2019-05-19T13:06:54.046Z,52.67
2019-05-19T13:09:20.802Z,52.63
2019-05-19T13:11:47.612Z,53.22
2019-05-19T13:14:14.359Z,53.86
2019-05-19T13:16:41.106Z,54.01
2019-05-19T13:19:07.978Z,54.39
2019-05-19T13:21:34.741Z,53.87
2019-05-19T13:24:01.510Z,53.71
2019-05-19T13:26:28.323Z,54.17
2019-05-19T13:28:55.067Z,55.06
2019-05-19T13:31:21.818Z,54.77
2019-05-19T13:33:48.800Z,55.02
2019-05-19T13:36:15.905Z,53.96
2019-05-19T13:38:42.608Z,53.97
2019-05-19T13:41:09.515Z,52.33
2019-05-19T13:43:36.241Z,51.83
2019-05-19T13:46:02.996Z,51.72
2019-05-19T13:48:29.894Z,51.39
2019-05-19T13:50:56.664Z,51.00
2019-05-19T13:53:23.388Z,50.40
2019-05-19T13:55:50.276Z,50.91
2019-05-19T13:58:17.021Z,50.52
2019-05-19T14:00:43.747Z,50.96
2019-05-19T14:03:10.636Z,50.82
2019-05-19T14:05:37.379Z,51.62
2019-05-19T14:08:04.182Z,52.83
2019-05-19T14:10:30.957Z,52.06
2019-05-19T14:12:57.699Z,52.33
2019-05-19T14:15:24.470Z,52.00
2019-05-19T14:17:51.294Z,52.96
2019-05-19T14:20:18.038Z,52.60
2019-05-19T14:22:44.779Z,52.34
2019-05-19T14:25:11.813Z,52.27
2019-05-19T14:27:38.554Z,52.49
2019-05-19T14:30:07.279Z,51.95
2019-05-19T14:32:34.176Z,51.89
2019-05-19T14:35:00.953Z,52.66
2019-05-19T14:37:27.697Z,52.22
2019-05-19T14:39:54.528Z,52.28
2019-05-19T14:42:21.266Z,52.45
2019-05-19T14:44:48.041Z,52.37
2019-05-19T14:47:15.840Z,52.75
2019-05-19T14:49:45.521Z,52.78
2019-05-19T14:52:11.601Z,52.86
2019-05-19T14:54:38.453Z,53.54
2019-05-19T14:57:05.198Z,54.32
2019-05-19T14:59:31.960Z,54.39
2019-05-19T15:01:58.760Z,54.75
2019-05-19T15:04:25.490Z,53.37
2019-05-19T15:06:52.286Z,53.30
2019-05-19T15:09:19.065Z,53.34
2019-05-19T15:11:46.122Z,53.56
2019-05-19T15:14:12.867Z,52.92
2019-05-19T15:16:39.804Z,53.26
2019-05-19T15:19:06.562Z,53.30
2019-05-19T15:21:33.543Z,53.65
2019-05-19T15:24:00.369Z,54.55
2019-05-19T15:26:29.226Z,54.55
2019-05-19T15:28:55.962Z,54.57
2019-05-19T15:31:22.805Z,54.67
2019-05-19T15:33:49.555Z,55.30
2019-05-19T15:36:16.393Z,55.65
2019-05-19T15:38:43.312Z,56.65
2019-05-19T15:41:10.321Z,57.21
2019-05-19T15:43:37.236Z,57.63
2019-05-19T15:46:04.052Z,58.11
2019-05-19T15:48:30.833Z,58.09
2019-05-19T15:50:57.941Z,58.50
2019-05-19T15:53:26.806Z,58.80
2019-05-19T15:55:57.088Z,58.97
2019-05-19T15:58:23.828Z,58.89
2019-05-19T16:00:50.638Z,58.90
2019-05-19T16:03:18.990Z,59.06
2019-05-19T16:05:45.750Z,59.23
2019-05-19T16:08:12.848Z,58.97
2019-05-19T16:10:39.622Z,59.47
2019-05-19T16:13:06.401Z,59.71
2019-05-19T16:15:33.303Z,59.72
2019-05-19T16:18:01.884Z,60.18
2019-05-19T16:20:28.624Z,59.58
2019-05-19T16:22:55.432Z,59.87
2019-05-19T16:25:22.279Z,59.96
2019-05-19T16:27:49.023Z,59.71
2019-05-19T16:30:16.052Z,60.00
2019-05-19T16:32:42.849Z,60.33
2019-05-19T16:35:09.809Z,60.38
2019-05-19T16:37:36.722Z,60.42
2019-05-19T16:40:05.749Z,59.85
2019-05-19T16:42:32.589Z,59.84
2019-05-19T16:44:59.412Z,59.80
2019-05-19T16:47:26.140Z,59.76
2019-05-19T16:49:53.285Z,59.13
2019-05-19T16:52:20.203Z,59.47
2019-05-19T16:54:46.979Z,59.78
2019-05-19T16:57:13.704Z,60.11
2019-05-19T16:59:40.519Z,60.49
2019-05-19T17:02:08.665Z,60.75
2019-05-19T17:04:35.403Z,60.63
2019-05-19T17:07:03.080Z,60.16
2019-05-19T17:09:30.096Z,60.05
2019-05-19T17:11:56.825Z,60.07
2019-05-19T17:14:28.408Z,60.24
2019-05-19T17:16:55.549Z,60.13
2019-05-19T17:19:22.525Z,59.48
2019-05-19T17:21:49.486Z,59.89
2019-05-19T17:24:17.603Z,60.39
2019-05-19T17:26:44.360Z,60.08
2019-05-19T17:29:11.149Z,59.93
2019-05-19T17:31:40.193Z,59.86
2019-05-19T17:34:06.988Z,60.15
2019-05-19T17:36:34.277Z,60.07
2019-05-19T17:39:01.119Z,60.17
2019-05-19T17:41:27.867Z,60.45
2019-05-19T17:43:54.665Z,60.38
2019-05-19T17:46:21.426Z,60.24
2019-05-19T17:48:48.163Z,60.68
2019-05-19T17:51:15.098Z,60.76
2019-05-19T17:53:41.828Z,60.86
2019-05-19T17:56:08.674Z,60.32
2019-05-19T17:58:36.072Z,60.12
2019-05-19T18:01:02.935Z,60.25
2019-05-19T18:03:29.979Z,60.18
2019-05-19T18:05:56.792Z,60.40
2019-05-19T18:08:23.560Z,60.30
2019-05-19T18:10:50.313Z,60.23
2019-05-19T18:13:17.133Z,60.15
2019-05-19T18:15:43.884Z,60.37
2019-05-19T18:18:10.633Z,60.54
2019-05-19T18:20:37.544Z,60.60
2019-05-19T18:23:05.999Z,60.45
2019-05-19T18:25:32.994Z,60.79
2019-05-19T18:27:59.956Z,60.97
2019-05-19T18:30:26.756Z,61.32
2019-05-19T18:32:53.495Z,61.55
2019-05-19T18:35:20.288Z,61.67
2019-05-19T18:37:47.125Z,61.53
2019-05-19T18:40:14.179Z,61.55
2019-05-19T18:42:43.449Z,61.91
2019-05-19T18:45:10.710Z,61.72
2019-05-19T18:47:37.476Z,61.20
2019-05-19T18:50:07.460Z,60.60
2019-05-19T18:52:34.197Z,60.55
2019-05-19T18:55:00.934Z,60.47
2019-05-19T18:57:27.744Z,60.50
2019-05-19T18:59:54.467Z,60.53
2019-05-19T19:02:21.215Z,60.81
2019-05-19T19:04:48.059Z,61.25
2019-05-19T19:07:14.803Z,61.41
2019-05-19T19:09:42.188Z,61.72
2019-05-19T19:12:09.096Z,62.19
2019-05-19T19:14:35.843Z,62.44
2019-05-19T19:17:02.601Z,62.41
2019-05-19T19:19:29.429Z,62.45
2019-05-19T19:21:56.193Z,62.69
2019-05-19T19:24:22.956Z,62.76
2019-05-19T19:26:49.793Z,62.92
2019-05-19T19:29:16.571Z,63.01
2019-05-19T19:31:48.714Z,63.07
2019-05-19T19:34:12.087Z,63.08
2019-05-19T19:36:38.919Z,63.31
2019-05-19T19:39:05.827Z,63.54
2019-05-19T19:41:33.190Z,63.24
2019-05-19T19:44:19.966Z,63.38
2019-05-19T19:46:47.135Z,63.56
2019-05-19T19:49:14.223Z,63.60
2019-05-19T19:51:41.256Z,63.81
2019-05-19T19:54:08.316Z,64.03
2019-05-19T19:56:35.046Z,64.29
2019-05-19T19:59:01.829Z,64.38
2019-05-19T20:01:28.587Z,64.48
2019-05-19T20:03:55.336Z,64.57
2019-05-19T20:06:22.135Z,64.49
2019-05-19T20:08:49.039Z,64.41
2019-05-19T20:11:15.808Z,64.33
2019-05-19T20:13:42.542Z,64.50
2019-05-19T20:16:09.366Z,64.67
2019-05-19T20:18:36.101Z,64.64
2019-05-19T20:21:02.874Z,64.56
2019-05-19T20:23:29.739Z,64.18
2019-05-19T20:25:56.497Z,64.27
2019-05-19T20:28:23.317Z,64.52
2019-05-19T20:30:50.175Z,64.49
2019-05-19T20:33:17.016Z,64.37
2019-05-19T20:35:43.761Z,64.26
2019-05-19T20:38:10.667Z,64.23
2019-05-19T20:40:37.460Z,64.25
2019-05-19T20:43:04.203Z,64.22
2019-05-19T20:45:32.319Z,63.88
2019-05-19T20:47:59.046Z,63.91
2019-05-19T20:50:25.795Z,63.74
2019-05-19T20:52:52.615Z,63.96
2019-05-19T20:55:19.418Z,63.72
2019-05-19T20:57:46.127Z,63.59
2019-05-19T21:00:14.934Z,63.80
2019-05-19T21:02:41.681Z,63.75
2019-05-19T21:05:08.527Z,63.57
2019-05-19T21:07:35.353Z,63.61
2019-05-19T21:10:04.587Z,63.60
2019-05-19T21:12:31.352Z,63.61
2019-05-19T21:15:17.950Z,63.58
2019-05-19T21:17:44.691Z,63.74
2019-05-19T21:20:11.565Z,63.70
2019-05-19T21:22:38.438Z,63.58
2019-05-19T21:25:06.653Z,63.44
2019-05-19T21:27:33.417Z,63.66
2019-05-19T21:30:00.400Z,63.69
2019-05-19T21:32:27.153Z,63.58
2019-05-19T21:34:53.901Z,63.48
2019-05-19T21:37:20.837Z,63.38
2019-05-19T21:39:47.611Z,63.49
2019-05-19T21:42:14.407Z,63.62
2019-05-19T21:44:41.412Z,63.52
2019-05-19T21:47:08.146Z,63.48
2019-05-19T21:49:34.916Z,63.43
2019-05-19T21:52:01.808Z,63.47
2019-05-19T21:54:28.544Z,63.47
2019-05-19T21:56:55.287Z,63.22
2019-05-19T21:59:22.227Z,63.10
2019-05-19T22:01:48.912Z,63.26
2019-05-19T22:04:15.668Z,63.12
2019-05-19T22:06:42.581Z,63.12
2019-05-19T22:09:09.329Z,63.07
2019-05-19T22:11:36.091Z,63.05
2019-05-19T22:14:02.995Z,63.09
2019-05-19T22:16:29.731Z,63.15
2019-05-19T22:18:56.464Z,63.00
2019-05-19T22:21:23.397Z,62.95
2019-05-19T22:23:50.121Z,63.10
2019-05-19T22:26:16.878Z,63.03
2019-05-19T22:28:43.669Z,62.90
2019-05-19T22:31:10.423Z,63.09
2019-05-19T22:33:37.160Z,63.11
2019-05-19T22:36:04.060Z,63.26
2019-05-19T22:38:30.815Z,63.30
2019-05-19T22:40:57.599Z,63.28
2019-05-19T22:43:24.428Z,63.19
2019-05-19T22:45:51.183Z,63.01
2019-05-19T22:48:17.954Z,63.12
2019-05-19T22:50:44.770Z,63.35
2019-05-19T22:53:11.483Z,63.44
2019-05-19T22:55:38.241Z,63.54
2019-05-19T22:58:05.126Z,63.56
2019-05-19T23:00:31.919Z,63.53
2019-05-19T23:02:58.640Z,63.41
2019-05-19T23:05:25.441Z,63.44
2019-05-19T23:07:52.172Z,63.74
2019-05-19T23:10:20.926Z,63.78
2019-05-19T23:12:47.723Z,63.71
2019-05-19T23:15:15.248Z,63.65
2019-05-19T23:17:41.992Z,63.63
2019-05-19T23:20:08.889Z,63.92
2019-05-19T23:22:35.630Z,63.86
2019-05-19T23:25:04.790Z,63.86
2019-05-19T23:27:31.605Z,63.88
2019-05-19T23:29:58.378Z,64.33
2019-05-19T23:32:25.102Z,64.27
2019-05-19T23:34:51.992Z,64.07
2019-05-19T23:37:18.782Z,64.13
2019-05-19T23:39:45.528Z,64.14
2019-05-19T23:42:12.685Z,64.17
2019-05-19T23:44:39.399Z,64.33
2019-05-19T23:47:06.142Z,64.48
2019-05-19T23:49:33.032Z,64.59
2019-05-19T23:51:59.782Z,64.68
2019-05-19T23:54:26.527Z,64.68
2019-05-19T23:56:53.405Z,64.78
2019-05-19T23:59:20.152Z,64.67
